Time;durP1;ratioP1;P1;durP2;ratioP2;P2;SDS_P1;SDS_P2;PMS_P1;PMS_P2;Temp;Humidity;BMP_temperature;BMP_pressure;BME280_temperature;BME280_humidity;BME280_pressure;Samples;Min_cycle;Max_cycle;Signal;HPM_P1;HPM_P2
2022/04/07 00:01:57;;;;;;;10.00;5.87;;;;;;;12.47;43.21;100072.06;5132008;27;20425;-56
2022/04/07 00:04:24;;;;;;;9.32;5.88;;;;;;;12.40;43.85;100071.22;5088655;27;20930;-56
2022/04/07 00:06:51;;;;;;;9.02;5.80;;;;;;;12.54;43.46;100075.56;5091156;28;20790;-57
2022/04/07 00:09:18;;;;;;;8.25;6.15;;;;;;;12.74;43.11;100065.00;5091126;28;20413;-56
2022/04/07 00:11:44;;;;;;;12.77;6.03;;;;;;;13.06;42.57;100057.31;5091116;28;20409;-56
2022/04/07 00:14:11;;;;;;;9.65;6.13;;;;;;;13.16;41.95;100062.22;5119578;27;20795;-56
2022/04/07 00:16:38;;;;;;;11.32;6.85;;;;;;;13.19;41.48;100051.19;5130891;27;20919;-56
2022/04/07 00:19:07;;;;;;;10.52;6.03;;;;;;;12.98;41.77;100042.38;5111325;28;20514;-56
2022/04/07 00:21:38;;;;;;;7.57;5.63;;;;;;;12.65;42.74;100044.13;5112390;27;20520;-56
2022/04/07 00:24:07;;;;;;;10.48;5.85;;;;;;;12.55;42.96;100032.03;5110128;28;20784;-56
2022/04/07 00:26:35;;;;;;;8.98;6.00;;;;;;;12.58;43.17;100013.00;5110785;28;20935;-56
2022/04/07 00:29:02;;;;;;;12.00;5.95;;;;;;;12.85;42.66;100023.72;5111905;27;20451;-56
2022/04/07 00:31:38;;;;;;;10.98;5.97;;;;;;;12.93;42.29;100020.06;5111023;28;20407;-56
2022/04/07 00:34:06;;;;;;;7.75;5.63;;;;;;;12.98;42.33;100015.75;5129944;27;20413;-56
2022/04/07 00:36:34;;;;;;;9.13;6.00;;;;;;;13.06;42.14;100017.41;5131467;27;20921;-57
2022/04/07 00:39:01;;;;;;;8.15;5.85;;;;;;;13.20;42.03;100028.88;5128604;27;20555;-56
2022/04/07 00:41:28;;;;;;;8.70;5.70;;;;;;;13.20;41.85;100040.34;5110764;28;20965;-55
2022/04/07 00:43:54;;;;;;;12.00;5.70;;;;;;;13.26;41.92;100043.22;5110986;27;20404;-55
2022/04/07 00:46:21;;;;;;;8.38;5.40;;;;;;;13.37;41.59;100059.41;5090386;28;20504;-56
2022/04/07 00:48:48;;;;;;;10.00;5.88;;;;;;;13.31;41.53;100054.09;5106678;27;20502;-56
2022/04/07 00:51:17;;;;;;;10.90;6.20;;;;;;;13.15;41.36;100055.28;5110633;28;20980;-55
2022/04/07 00:53:45;;;;;;;11.23;6.57;;;;;;;13.24;41.11;100042.59;5131159;27;20493;-56
2022/04/07 00:56:13;;;;;;;9.93;6.07;;;;;;;13.05;41.50;100037.03;5131277;27;20500;-56
2022/04/07 00:58:40;;;;;;;10.68;6.60;;;;;;;13.22;40.96;100026.00;5131091;27;20405;-56
2022/04/07 01:01:08;;;;;;;11.25;6.80;;;;;;;13.16;41.25;100017.81;5131198;27;20440;-56
2022/04/07 01:03:35;;;;;;;11.55;6.43;;;;;;;13.15;41.29;100018.84;5097905;27;20420;-63
2022/04/07 01:06:48;;;;;;;9.73;5.80;;;;;;;13.29;41.28;100027.66;5127865;27;20924;-56
2022/04/07 01:09:16;;;;;;;9.93;6.27;;;;;;;13.29;41.33;100021.50;5127922;28;20488;-56
2022/04/07 01:11:44;;;;;;;9.70;6.00;;;;;;;13.30;41.42;100009.84;5127645;28;20894;-56
2022/04/07 01:14:11;;;;;;;7.40;5.50;;;;;;;13.22;41.88;100012.69;5127503;28;20489;-56
2022/04/07 01:16:38;;;;;;;8.32;5.57;;;;;;;13.25;41.66;100015.75;5127751;27;20426;-56
2022/04/07 01:21:17;;;;;;;9.23;5.77;;;;;;;13.09;42.47;99994.88;5116723;27;2035377;-55
2022/04/07 01:23:52;;;;;;;8.38;5.70;;;;;;;13.35;41.92;99997.56;5169070;27;20403;-55
2022/04/07 01:26:21;;;;;;;8.57;6.32;;;;;;;13.44;41.84;99995.53;5155097;27;20470;-55
2022/04/07 01:28:49;;;;;;;8.83;6.07;;;;;;;13.49;41.69;99990.41;5144594;27;20438;-55
2022/04/07 01:31:16;;;;;;;10.10;6.57;;;;;;;13.31;41.96;99984.91;5148413;27;20412;-55
2022/04/07 01:33:45;;;;;;;9.35;6.10;;;;;;;13.20;42.25;99995.09;5148061;27;20475;-55
2022/04/07 01:36:14;;;;;;;9.00;5.90;;;;;;;13.41;42.22;99993.25;5148256;27;20409;-55
2022/04/07 01:38:41;;;;;;;8.80;5.55;;;;;;;13.36;42.13;99991.25;5147422;27;20409;-55
2022/04/07 01:41:09;;;;;;;7.03;5.47;;;;;;;13.42;41.99;99991.44;5147571;27;20512;-55
2022/04/07 01:43:39;;;;;;;6.75;5.13;;;;;;;13.34;42.20;99993.28;5147917;27;20783;-55
2022/04/07 01:46:07;;;;;;;7.10;5.22;;;;;;;13.50;41.70;99994.69;5148081;27;20427;-55
2022/04/07 01:48:34;;;;;;;6.97;5.30;;;;;;;13.59;41.46;99989.97;5146162;27;20504;-56
2022/04/07 01:51:03;;;;;;;8.32;4.75;;;;;;;13.52;41.56;99982.00;5147565;27;20496;-55
2022/04/07 01:53:30;;;;;;;8.35;4.75;;;;;;;13.46;41.87;99950.88;5147769;27;20413;-55
2022/04/07 01:55:58;;;;;;;8.05;4.60;;;;;;;13.00;42.71;99946.41;5147039;27;20906;-55
2022/04/07 01:58:25;;;;;;;7.88;4.60;;;;;;;12.84;43.38;99950.28;5146801;27;20405;-55
2022/04/07 02:03:16;;;;;;;7.38;4.40;;;;;;;13.14;42.68;99941.88;5095672;27;20828;-61
2022/04/07 02:05:43;;;;;;;10.80;8.45;;;;;;;13.16;42.78;99945.13;5076787;28;20981;-55
2022/04/07 02:08:10;;;;;;;37.60;31.10;;;;;;;13.17;43.00;99939.63;5086708;28;20773;-55
2022/04/07 02:12:29;;;;;;;8.68;6.50;;;;;;;13.28;42.68;99935.50;5114237;27;2106643;-55
2022/04/07 02:14:57;;;;;;;7.45;6.75;;;;;;;13.20;43.10;99931.22;5169298;27;20433;-56
2022/04/07 02:17:24;;;;;;;10.70;7.93;;;;;;;13.35;43.17;99928.38;5155630;27;20494;-55
2022/04/07 02:21:06;;;;;;;14.75;8.70;;;;;;;13.03;43.85;99937.97;5086064;28;20988;-56
2022/04/07 02:23:41;;;;;;;11.20;8.32;;;;;;;12.93;44.14;99930.41;5076545;28;20423;-56
2022/04/07 02:26:11;;;;;;;6.63;5.50;;;;;;;13.07;43.93;99912.63;5065909;28;20430;-57
2022/04/07 02:28:38;;;;;;;6.63;5.10;;;;;;;13.30;43.35;99912.16;5066005;28;20412;-55
2022/04/07 02:31:05;;;;;;;7.67;4.80;;;;;;;13.15;43.66;99907.06;5050153;28;20922;-55
2022/04/07 02:33:34;;;;;;;5.55;4.88;;;;;;;13.10;43.84;99904.22;5065343;28;20503;-56
2022/04/07 02:36:03;;;;;;;6.68;5.00;;;;;;;13.32;43.53;99899.50;5065956;28;20992;-56
2022/04/07 02:38:31;;;;;;;7.77;5.00;;;;;;;13.44;43.20;99901.53;5066682;28;20459;-57
2022/04/07 02:40:58;;;;;;;8.87;5.73;;;;;;;13.20;43.96;99903.81;5065482;28;20431;-56
2022/04/07 02:43:27;;;;;;;9.70;5.88;;;;;;;13.32;43.77;99891.50;5065975;28;20470;-56
2022/04/07 02:45:55;;;;;;;6.78;4.93;;;;;;;13.19;44.19;99878.19;5066163;28;20415;-56
2022/04/07 02:48:22;;;;;;;7.72;5.20;;;;;;;12.95;44.84;99883.16;5065597;28;20447;-55
2022/04/07 02:50:48;;;;;;;6.75;4.90;;;;;;;12.92;44.47;99885.41;5065417;28;20424;-56
2022/04/07 02:53:15;;;;;;;8.10;6.53;;;;;;;13.13;44.58;99893.16;5065742;28;20918;-56
2022/04/07 02:55:44;;;;;;;8.20;6.05;;;;;;;13.06;44.55;99912.81;5065871;28;20415;-56
2022/04/07 02:58:10;;;;;;;10.25;9.20;;;;;;;13.09;44.65;99912.38;5065788;28;20510;-56
2022/04/07 03:00:38;;;;;;;9.18;8.20;;;;;;;13.28;43.86;99916.06;5065694;28;20427;-56
2022/04/07 03:03:05;;;;;;;6.88;5.53;;;;;;;13.24;44.18;99896.22;5062496;28;20918;-63
2022/04/07 03:05:32;;;;;;;9.40;6.30;;;;;;;13.43;43.99;99883.91;5052002;28;20434;-58
2022/04/07 03:07:58;;;;;;;7.82;5.78;;;;;;;13.51;43.66;99889.03;5065412;28;20415;-55
2022/04/07 03:10:25;;;;;;;11.90;6.25;;;;;;;13.50;43.60;99885.53;5065404;28;20446;-56
2022/04/07 03:12:54;;;;;;;10.10;5.73;;;;;;;13.58;43.63;99882.63;5065252;28;20454;-56
2022/04/07 03:15:21;;;;;;;9.35;5.28;;;;;;;13.45;43.94;99879.19;5065266;28;20948;-56
2022/04/07 03:17:48;;;;;;;7.97;5.43;;;;;;;13.35;44.24;99874.31;5065320;28;20411;-57
2022/04/07 03:20:15;;;;;;;10.63;6.22;;;;;;;13.51;44.08;99887.16;5078989;28;20434;-56
2022/04/07 03:22:43;;;;;;;10.95;9.88;;;;;;;13.54;44.14;99888.59;5085534;28;20856;-55
2022/04/07 03:25:10;;;;;;;11.23;8.70;;;;;;;13.35;44.45;99893.75;5069121;28;20418;-56
2022/04/07 03:27:37;;;;;;;9.77;7.38;;;;;;;13.46;44.72;99886.16;5085173;28;20465;-56
2022/04/07 03:30:06;;;;;;;11.57;6.55;;;;;;;13.60;44.72;99874.44;5085131;28;20498;-56
2022/04/07 03:33:28;;;;;;;11.43;6.65;;;;;;;13.25;46.30;99840.09;5099194;27;20402;-55
2022/04/07 03:35:55;;;;;;;8.70;5.78;;;;;;;12.93;47.07;99828.53;5085997;28;20820;-56
2022/04/07 03:38:22;;;;;;;8.98;6.30;;;;;;;12.74;47.69;99820.34;5085680;28;20422;-56
2022/04/07 03:40:49;;;;;;;8.00;5.55;;;;;;;12.57;47.88;99803.19;5082558;28;20422;-56
2022/04/07 03:43:16;;;;;;;7.55;5.95;;;;;;;12.43;48.09;99805.84;5073431;28;20424;-55
2022/04/07 03:45:44;;;;;;;8.85;7.15;;;;;;;12.42;48.15;99806.88;5083987;28;20418;-56
2022/04/07 03:48:11;;;;;;;11.13;6.80;;;;;;;12.29;48.57;99798.88;5085662;28;20416;-56
2022/04/07 03:50:40;;;;;;;8.70;6.20;;;;;;;12.13;48.61;99788.66;5082948;28;20496;-56
2022/04/07 03:53:07;;;;;;;8.32;5.93;;;;;;;12.20;48.40;99789.47;5081770;28;20438;-56
2022/04/07 03:55:36;;;;;;;10.45;7.38;;;;;;;12.41;48.43;99791.13;5083485;28;20505;-54
2022/04/07 03:58:03;;;;;;;10.48;7.10;;;;;;;12.81;47.59;99785.78;5080920;28;20415;-56
2022/04/07 04:00:30;;;;;;;11.95;9.02;;;;;;;12.78;47.92;99781.69;5084578;28;20497;-56
2022/04/07 04:02:57;;;;;;;9.52;7.82;;;;;;;12.84;47.35;99769.41;5085279;28;20420;-55
2022/04/07 04:05:24;;;;;;;9.63;8.45;;;;;;;12.95;47.33;99781.25;5069082;28;20410;-54
2022/04/07 04:07:52;;;;;;;10.00;7.30;;;;;;;12.80;46.31;99794.75;5088116;28;20414;-56
2022/04/07 04:10:20;;;;;;;8.98;6.47;;;;;;;13.07;45.80;99808.84;5089792;28;20409;-56
2022/04/07 04:12:47;;;;;;;15.52;12.10;;;;;;;13.18;46.16;99818.00;5094747;28;20424;-55
2022/04/07 04:15:14;;;;;;;12.15;8.60;;;;;;;13.03;46.55;99814.78;5084457;28;20418;-55
2022/04/07 04:17:41;;;;;;;14.35;8.65;;;;;;;13.01;47.47;99817.66;5086028;28;20868;-55
2022/04/07 04:20:09;;;;;;;12.05;8.10;;;;;;;13.10;47.24;99805.75;5092354;28;20450;-55
2022/04/07 04:22:36;;;;;;;10.85;7.60;;;;;;;13.26;46.82;99806.34;5085206;28;20416;-55
2022/04/07 04:25:07;;;;;;;10.20;7.50;;;;;;;13.12;47.54;99806.38;5085436;28;20505;-55
2022/04/07 04:27:35;;;;;;;8.63;6.73;;;;;;;13.07;47.54;99808.84;5085584;28;20497;-55
2022/04/07 04:30:02;;;;;;;9.57;6.22;;;;;;;13.31;47.31;99817.22;5085442;28;20500;-56
2022/04/07 04:32:28;;;;;;;8.85;6.82;;;;;;;13.25;47.15;99821.47;5085682;28;20429;-55
2022/04/07 04:34:55;;;;;;;12.77;7.90;;;;;;;13.33;47.22;99829.28;5084979;28;20450;-55
2022/04/07 04:37:25;;;;;;;10.52;8.13;;;;;;;13.29;46.77;99841.34;5085733;28;20544;-56
2022/04/07 04:39:53;;;;;;;9.50;7.38;;;;;;;13.17;47.15;99848.31;5083690;28;20988;-58
2022/04/07 04:42:22;;;;;;;12.37;8.67;;;;;;;13.15;47.36;99859.16;5072084;28;20414;-56
2022/04/07 04:44:49;;;;;;;12.27;9.13;;;;;;;13.17;46.81;99874.94;5067316;28;20509;-56
2022/04/07 04:47:18;;;;;;;15.07;9.40;;;;;;;13.16;47.10;99898.06;5066947;28;20414;-56
2022/04/07 04:49:45;;;;;;;12.05;9.00;;;;;;;13.06;47.25;99910.16;5068533;28;20495;-56
2022/04/07 04:52:13;;;;;;;19.20;12.53;;;;;;;13.10;47.10;99912.19;5067152;28;20431;-57
2022/04/07 04:54:40;;;;;;;20.27;14.87;;;;;;;13.25;46.67;99901.31;5065416;28;20407;-54
2022/04/07 04:57:07;;;;;;;19.80;11.52;;;;;;;13.42;46.16;99885.75;5066341;28;20995;-56
2022/04/07 04:59:36;;;;;;;19.37;10.90;;;;;;;13.45;46.32;99880.03;5064883;28;20422;-55
2022/04/07 05:02:04;;;;;;;18.08;11.23;;;;;;;13.44;47.33;99875.72;5063824;28;20419;-57
2022/04/07 05:04:31;;;;;;;13.68;10.52;;;;;;;13.50;47.67;99868.72;5072262;28;20453;-56
2022/04/07 05:06:58;;;;;;;16.35;11.55;;;;;;;13.57;48.26;99857.03;5076905;28;20422;-55
2022/04/07 05:09:25;;;;;;;19.17;13.05;;;;;;;13.54;49.46;99846.81;5070561;28;20505;-53
2022/04/07 05:11:52;;;;;;;20.58;13.10;;;;;;;13.62;49.99;99844.94;5070534;28;20472;-57
2022/04/07 05:14:19;;;;;;;19.40;12.02;;;;;;;13.65;50.35;99825.84;5070998;28;20427;-54
2022/04/07 05:16:47;;;;;;;14.27;10.77;;;;;;;13.58;50.42;99817.91;5069766;28;20415;-55
2022/04/07 05:19:14;;;;;;;12.52;9.00;;;;;;;13.52;51.54;99808.09;5070563;28;20505;-56
2022/04/07 05:21:41;;;;;;;10.93;8.10;;;;;;;12.94;53.01;99812.34;5070762;28;20478;-56
2022/04/07 05:24:08;;;;;;;13.57;8.15;;;;;;;12.68;53.62;99815.06;5070868;28;20425;-55
2022/04/07 05:26:35;;;;;;;11.17;7.57;;;;;;;12.88;54.09;99801.72;5070633;28;20920;-56
2022/04/07 05:29:04;;;;;;;9.70;7.27;;;;;;;12.62;54.11;99804.22;5070770;28;20422;-55
2022/04/07 05:31:31;;;;;;;10.98;8.20;;;;;;;12.52;54.84;99801.16;5070663;28;20502;-55
2022/04/07 05:33:59;;;;;;;11.13;8.27;;;;;;;12.78;54.56;99804.78;5069849;28;20427;-56
2022/04/07 05:36:27;;;;;;;10.27;7.70;;;;;;;12.65;54.88;99804.81;5069356;28;20850;-56
2022/04/07 05:38:54;;;;;;;9.90;7.72;;;;;;;12.56;54.18;99813.00;5070265;28;20526;-54
2022/04/07 05:41:21;;;;;;;9.52;6.90;;;;;;;12.60;54.36;99808.94;5070543;28;20415;-55
2022/04/07 05:43:47;;;;;;;8.88;7.18;;;;;;;12.90;55.18;99810.31;5070941;28;20415;-55
2022/04/07 05:46:14;;;;;;;10.03;7.87;;;;;;;12.93;53.87;99809.91;5070418;28;21288;-60
2022/04/07 05:48:41;;;;;;;11.33;7.90;;;;;;;13.13;54.42;99808.00;5070808;28;20561;-57
2022/04/07 05:51:11;;;;;;;12.00;8.77;;;;;;;13.32;53.88;99816.16;5070073;28;20462;-54
2022/04/07 05:53:38;;;;;;;11.17;9.00;;;;;;;13.39;53.44;99824.94;5070711;28;20539;-56
2022/04/07 05:56:05;;;;;;;14.85;10.98;;;;;;;13.33;53.82;99826.59;5069099;28;20505;-56
2022/04/07 05:58:32;;;;;;;12.25;9.68;;;;;;;13.32;54.10;99822.28;5070366;28;20415;-56
2022/04/07 06:00:59;;;;;;;11.48;8.90;;;;;;;13.29;54.24;99814.72;5069944;28;20879;-55
2022/04/07 06:03:26;;;;;;;14.27;9.80;;;;;;;13.46;53.90;99800.97;5070235;28;20414;-57
2022/04/07 06:05:54;;;;;;;13.30;9.32;;;;;;;13.52;53.39;99802.78;5072877;28;20426;-56
2022/04/07 06:08:22;;;;;;;12.80;8.88;;;;;;;13.28;53.78;99793.63;5069711;28;20917;-55
2022/04/07 06:10:49;;;;;;;12.07;8.50;;;;;;;13.28;53.93;99791.78;5065833;28;20411;-56
2022/04/07 06:13:16;;;;;;;12.05;9.55;;;;;;;13.25;54.17;99797.53;5069374;28;20430;-56
2022/04/07 06:15:43;;;;;;;14.00;12.10;;;;;;;13.28;53.68;99797.09;5064581;28;20514;-56
2022/04/07 06:18:10;;;;;;;14.87;12.90;;;;;;;13.35;53.44;99794.47;5056906;28;21120;-56
2022/04/07 06:20:37;;;;;;;14.75;13.20;;;;;;;13.38;53.98;99797.53;5051262;28;21009;-56
2022/04/07 06:23:04;;;;;;;15.65;11.98;;;;;;;13.53;53.02;99796.44;5055590;28;20417;-56
2022/04/07 06:25:32;;;;;;;13.85;11.65;;;;;;;13.57;53.39;99787.78;5060654;28;20419;-56
2022/04/07 06:28:02;;;;;;;17.65;10.95;;;;;;;13.62;53.57;99787.16;5060097;28;20412;-57
2022/04/07 06:30:29;;;;;;;17.83;11.55;;;;;;;13.62;53.60;99805.81;5065715;28;20909;-58
2022/04/07 06:32:56;;;;;;;13.20;9.80;;;;;;;13.46;54.22;99808.97;5071770;28;20433;-56
2022/04/07 06:35:23;;;;;;;13.57;8.98;;;;;;;13.55;53.68;99815.66;5063157;28;20493;-56
2022/04/07 06:37:54;;;;;;;14.05;10.70;;;;;;;13.63;54.23;99817.28;5064283;28;20534;-57
2022/04/07 06:40:22;;;;;;;13.73;10.45;;;;;;;13.60;54.38;99809.72;5066869;28;20418;-56
2022/04/07 06:42:51;;;;;;;13.27;10.30;;;;;;;13.75;54.85;99796.94;5065300;28;20426;-55
2022/04/07 06:45:18;;;;;;;14.82;10.60;;;;;;;13.82;54.78;99788.91;5072373;28;20492;-56
2022/04/07 06:47:45;;;;;;;13.73;11.50;;;;;;;13.62;55.01;99803.16;5068969;28;20430;-55
2022/04/07 06:50:14;;;;;;;16.27;12.45;;;;;;;13.45;55.43;99810.81;5054110;28;20894;-57
2022/04/07 06:52:41;;;;;;;15.02;11.30;;;;;;;13.56;55.11;99818.13;5050824;28;20428;-56
2022/04/07 06:55:11;;;;;;;16.85;11.98;;;;;;;13.64;55.33;99821.59;5055935;28;20499;-56
2022/04/07 06:57:55;;;;;;;18.45;11.98;;;;;;;13.43;55.85;99828.81;5055399;28;20419;-56
2022/04/07 07:00:25;;;;;;;18.42;13.15;;;;;;;13.34;55.66;99827.41;5058831;28;20422;-56
2022/04/07 07:02:53;;;;;;;20.13;16.70;;;;;;;13.29;55.77;99820.03;5060151;28;20456;-56
2022/04/07 07:05:21;;;;;;;20.95;15.57;;;;;;;13.44;55.79;99824.31;5054278;28;20964;-56
2022/04/07 07:07:48;;;;;;;18.85;15.15;;;;;;;13.61;55.57;99836.13;5058782;28;20509;-56
2022/04/07 07:10:20;;;;;;;18.92;13.52;;;;;;;13.59;55.58;99840.84;5050842;28;20431;-56
2022/04/07 07:12:47;;;;;;;18.17;13.05;;;;;;;13.69;55.21;99843.06;5054818;28;20436;-56
2022/04/07 07:15:15;;;;;;;16.88;14.07;;;;;;;13.70;55.24;99840.19;5053470;28;21621;-55
2022/04/07 07:17:42;;;;;;;15.82;13.43;;;;;;;13.85;55.19;99833.78;5066005;28;20422;-56
2022/04/07 07:20:12;;;;;;;20.15;13.23;;;;;;;13.98;55.15;99830.22;5055353;28;20445;-56
2022/04/07 07:22:39;;;;;;;21.15;14.70;;;;;;;14.05;54.95;99836.34;5053538;28;20446;-56
2022/04/07 07:25:07;;;;;;;21.20;14.88;;;;;;;13.94;54.94;99838.63;5050431;28;20466;-55
2022/04/07 07:27:38;;;;;;;18.40;13.65;;;;;;;13.72;55.57;99839.97;5051409;28;20422;-56
2022/04/07 07:30:08;;;;;;;18.63;12.82;;;;;;;13.79;55.40;99848.75;5054865;28;20422;-56
2022/04/07 07:32:37;;;;;;;17.33;13.45;;;;;;;13.84;55.45;99864.09;5054705;28;20440;-56
2022/04/07 07:35:04;;;;;;;16.08;11.90;;;;;;;13.81;55.49;99862.69;5055863;28;20424;-54
2022/04/07 07:37:31;;;;;;;18.13;13.23;;;;;;;13.89;55.26;99873.09;5058095;28;20420;-56
2022/04/07 07:40:03;;;;;;;17.27;12.67;;;;;;;13.87;55.28;99874.34;5057107;28;20506;-55
2022/04/07 07:42:30;;;;;;;13.10;9.80;;;;;;;13.85;55.33;99861.22;5063615;28;20447;-56
2022/04/07 07:44:57;;;;;;;12.93;9.63;;;;;;;13.99;55.18;99872.66;5072474;28;20512;-55
2022/04/07 07:47:24;;;;;;;10.90;9.20;;;;;;;14.20;54.72;99866.16;5068689;28;20415;-55
2022/04/07 07:49:53;;;;;;;10.35;8.80;;;;;;;14.37;53.89;99866.47;5062817;28;20509;-56
2022/04/07 07:52:19;;;;;;;10.63;8.82;;;;;;;14.42;53.77;99865.81;5076291;28;20484;-56
2022/04/07 07:54:46;;;;;;;10.88;8.82;;;;;;;14.57;53.78;99870.81;5072872;28;20501;-56
2022/04/07 07:57:14;;;;;;;11.10;9.38;;;;;;;14.61;53.07;99880.06;5067447;28;20494;-56
2022/04/07 07:59:41;;;;;;;13.32;9.93;;;;;;;14.50;53.58;99897.56;5067517;28;20828;-56
2022/04/07 08:02:07;;;;;;;15.18;11.32;;;;;;;14.26;53.55;99894.63;5068706;28;20417;-57
2022/04/07 08:04:34;;;;;;;15.53;10.60;;;;;;;14.26;53.48;99896.47;5068833;28;20425;-56
2022/04/07 08:07:03;;;;;;;13.67;10.60;;;;;;;14.19;53.58;99888.53;5068801;28;20421;-56
2022/04/07 08:09:30;;;;;;;11.07;9.23;;;;;;;14.14;53.66;99891.81;5068829;28;20457;-56
2022/04/07 08:11:57;;;;;;;10.75;9.38;;;;;;;13.96;54.39;99899.72;5068100;28;20415;-56
2022/04/07 08:14:24;;;;;;;14.88;10.02;;;;;;;14.06;55.23;99894.75;5068939;28;20434;-56
2022/04/07 08:16:51;;;;;;;14.73;10.68;;;;;;;14.09;54.83;99891.63;5068789;28;20913;-55
2022/04/07 08:19:18;;;;;;;13.45;10.18;;;;;;;14.04;55.35;99891.44;5070881;28;20410;-57
2022/04/07 08:21:45;;;;;;;13.33;10.00;;;;;;;14.05;55.57;99895.75;5072350;28;20924;-56
2022/04/07 08:24:15;;;;;;;12.20;9.27;;;;;;;14.13;55.49;99895.53;5072032;28;20422;-57
2022/04/07 08:26:42;;;;;;;12.27;10.65;;;;;;;14.25;55.91;99889.50;5075851;28;20421;-55
2022/04/07 08:29:09;;;;;;;21.83;13.95;;;;;;;13.92;55.87;99899.31;5091193;28;20492;-55
2022/04/07 08:31:36;;;;;;;17.80;15.63;;;;;;;13.89;56.90;99893.59;5092539;28;20425;-56
2022/04/07 08:34:03;;;;;;;19.33;17.27;;;;;;;14.11;56.32;99880.75;5092647;28;20516;-55
2022/04/07 08:36:30;;;;;;;25.77;23.23;;;;;;;14.27;56.50;99879.44;5092722;28;20442;-56
2022/04/07 08:38:57;;;;;;;21.58;19.40;;;;;;;14.19;56.09;99875.19;5092376;28;20398;-56
2022/04/07 08:41:31;;;;;;;19.50;17.40;;;;;;;14.23;56.34;99871.06;5092496;28;20866;-56
2022/04/07 08:44:53;;;;;;;14.02;11.05;;;;;;;13.83;56.95;99873.94;5086073;28;20456;-56
2022/04/07 08:47:20;;;;;;;16.25;14.20;;;;;;;13.99;57.70;99863.81;5086844;28;20410;-56
2022/04/07 08:51:22;;;;;;;16.38;13.20;;;;;;;14.14;57.36;99875.81;5115449;27;2070022;-57
2022/04/07 08:53:49;;;;;;;16.67;13.63;;;;;;;14.38;57.01;99868.09;5169132;27;20399;-56
2022/04/07 08:56:16;;;;;;;17.63;15.65;;;;;;;14.52;56.90;99860.81;5168882;27;20494;-55
2022/04/07 08:58:43;;;;;;;22.30;19.93;;;;;;;14.70;56.49;99852.91;5169284;27;20407;-55
2022/04/07 09:01:10;;;;;;;16.80;12.88;;;;;;;14.45;56.37;99855.53;5148198;27;20456;-55
2022/04/07 09:03:37;;;;;;;15.48;10.60;;;;;;;14.27;57.02;99850.94;5129281;27;20449;-56
2022/04/07 09:06:05;;;;;;;12.98;10.38;;;;;;;14.24;56.77;99837.22;5147966;27;20409;-55
2022/04/07 09:08:35;;;;;;;13.65;11.00;;;;;;;14.23;57.62;99838.28;5148327;27;20453;-55
2022/04/07 09:11:04;;;;;;;12.55;10.90;;;;;;;14.20;57.10;99834.16;5148284;27;20434;-55
2022/04/07 09:13:32;;;;;;;12.40;10.55;;;;;;;14.08;57.42;99814.56;5147206;27;20940;-54
2022/04/07 09:16:00;;;;;;;13.37;9.40;;;;;;;13.65;56.42;99807.22;5146198;27;20504;-55
2022/04/07 09:18:27;;;;;;;13.00;10.15;;;;;;;13.32;57.69;99785.03;5147545;27;20413;-55
2022/04/07 09:20:54;;;;;;;11.68;10.48;;;;;;;13.28;57.78;99783.00;5145892;27;20985;-55
2022/04/07 09:23:21;;;;;;;12.00;10.73;;;;;;;13.16;58.13;99783.66;5147238;27;20409;-54
2022/04/07 09:25:50;;;;;;;12.07;10.80;;;;;;;13.64;57.27;99800.28;5147515;27;20981;-56
2022/04/07 09:28:30;;;;;;;12.38;11.00;;;;;;;13.86;57.57;99803.44;5147932;27;20409;-56
2022/04/07 09:30:58;;;;;;;12.30;11.00;;;;;;;13.54;56.94;99793.56;5148051;27;20431;-55
2022/04/07 09:33:27;;;;;;;12.47;11.17;;;;;;;13.60;56.92;99799.88;5147755;27;20409;-55
2022/04/07 09:36:02;;;;;;;17.90;13.30;;;;;;;13.68;57.68;99794.28;5147464;27;20961;-55
2022/04/07 09:38:30;;;;;;;14.88;12.27;;;;;;;13.56;57.32;99794.16;5129433;27;20397;-56
2022/04/07 09:41:05;;;;;;;15.20;12.95;;;;;;;13.60;58.06;99802.53;5147407;27;20492;-56
2022/04/07 09:43:41;;;;;;;14.63;12.23;;;;;;;13.74;57.37;99796.13;5138028;27;20493;-56
2022/04/07 09:46:09;;;;;;;14.30;12.48;;;;;;;13.57;58.38;99787.78;5145029;27;20930;-56
2022/04/07 09:48:37;;;;;;;15.02;12.40;;;;;;;13.49;58.87;99790.72;5147261;27;20971;-56
2022/04/07 09:51:05;;;;;;;13.50;12.10;;;;;;;13.44;58.70;99777.22;5147560;27;20425;-55
2022/04/07 09:53:37;;;;;;;15.02;13.48;;;;;;;13.64;59.24;99778.97;5147249;27;20409;-56
2022/04/07 09:56:06;;;;;;;16.83;14.55;;;;;;;13.74;58.65;99779.34;5147436;27;20472;-56
2022/04/07 09:58:36;;;;;;;14.90;13.25;;;;;;;14.00;58.18;99772.19;5147567;27;20405;-56
2022/04/07 10:01:05;;;;;;;13.60;11.77;;;;;;;13.90;57.67;99775.31;5142521;27;20485;-56
2022/04/07 10:03:32;;;;;;;14.05;12.18;;;;;;;14.12;57.80;99760.63;5132604;27;20421;-56
2022/04/07 10:06:00;;;;;;;14.18;12.60;;;;;;;14.51;57.11;99758.69;5133146;27;20405;-56
2022/04/07 10:08:27;;;;;;;16.10;13.85;;;;;;;14.88;56.77;99760.59;5131782;27;20413;-56
2022/04/07 10:10:55;;;;;;;14.25;12.07;;;;;;;15.45;55.28;99758.47;5131776;27;20806;-56
2022/04/07 10:13:24;;;;;;;13.65;11.75;;;;;;;15.30;55.21;99752.72;5132800;27;20497;-56
2022/04/07 10:15:52;;;;;;;12.23;10.30;;;;;;;15.46;54.68;99756.63;5131751;27;20496;-56
2022/04/07 10:18:25;;;;;;;12.27;11.07;;;;;;;15.99;54.25;99741.72;5130312;27;20429;-57
2022/04/07 10:20:58;;;;;;;13.23;10.25;;;;;;;16.22;51.89;99746.28;5124321;27;20943;-57
2022/04/07 10:23:41;;;;;;;11.70;9.13;;;;;;;16.24;51.59;99742.34;5112800;27;20893;-56
2022/04/07 10:26:11;;;;;;;10.23;9.23;;;;;;;16.73;51.57;99742.13;5113817;27;20482;-56
2022/04/07 10:28:39;;;;;;;9.63;8.73;;;;;;;16.62;50.21;99734.94;5116066;27;20494;-55
2022/04/07 10:31:15;;;;;;;9.90;8.90;;;;;;;16.86;50.18;99732.25;5114130;27;20743;-56
2022/04/07 10:33:44;;;;;;;11.03;8.77;;;;;;;17.43;49.22;99737.69;5118467;27;20507;-56
2022/04/07 10:36:15;;;;;;;10.13;8.50;;;;;;;17.75;48.42;99729.13;5113999;27;20406;-56
2022/04/07 10:38:44;;;;;;;10.77;9.00;;;;;;;17.50;48.88;99732.16;5115188;27;20409;-56
2022/04/07 10:41:11;;;;;;;10.57;8.48;;;;;;;17.15;48.57;99719.72;5112641;27;20494;-55
2022/04/07 10:43:40;;;;;;;9.65;7.65;;;;;;;17.35;47.80;99727.31;5113962;27;20411;-56
2022/04/07 10:46:14;;;;;;;9.93;8.40;;;;;;;17.52;47.23;99728.19;5112418;27;20412;-56
2022/04/07 10:48:51;;;;;;;9.60;8.57;;;;;;;17.17;47.46;99722.97;5115953;27;20397;-55
2022/04/07 10:51:19;;;;;;;9.68;8.63;;;;;;;17.57;47.72;99725.63;5117082;27;20427;-57
2022/04/07 10:54:05;;;;;;;9.93;8.02;;;;;;;18.29;46.56;99708.06;5118334;27;20408;-56
2022/04/07 10:56:34;;;;;;;10.18;7.82;;;;;;;18.28;45.85;99719.03;5118921;27;20414;-55
2022/04/07 10:59:20;;;;;;;9.68;7.95;;;;;;;18.53;45.85;99716.72;5115026;27;20423;-56
2022/04/07 11:02:03;;;;;;;9.27;7.93;;;;;;;18.49;45.06;99709.41;5120220;27;20489;-56
2022/04/07 11:04:41;;;;;;;9.48;7.85;;;;;;;18.50;45.29;99703.78;5112763;27;20439;-56
2022/04/07 11:07:22;;;;;;;9.65;8.43;;;;;;;18.29;46.68;99709.91;5125227;27;20418;-57
2022/04/07 11:10:16;;;;;;;12.25;10.30;;;;;;;17.54;47.40;99720.72;5115472;27;20499;-56
2022/04/07 11:12:44;;;;;;;11.60;10.40;;;;;;;17.65;47.94;99716.38;5062948;27;20431;-56
2022/04/07 11:15:18;;;;;;;10.80;9.68;;;;;;;17.64;48.35;99712.03;5117554;27;20423;-56
2022/04/07 11:17:53;;;;;;;11.30;8.43;;;;;;;17.50;48.29;99716.91;5113689;27;20484;-58
2022/04/07 11:20:21;;;;;;;11.02;8.35;;;;;;;17.34;48.56;99710.44;5125647;27;20417;-55
2022/04/07 11:22:53;;;;;;;10.95;8.15;;;;;;;17.17;49.03;99712.25;5131299;27;20417;-56
2022/04/07 11:25:23;;;;;;;11.32;9.05;;;;;;;16.92;50.18;99718.72;5121914;27;20407;-56
2022/04/07 11:28:14;;;;;;;13.77;10.23;;;;;;;16.78;50.47;99711.97;5112696;27;20443;-56
2022/04/07 11:30:46;;;;;;;12.45;9.02;;;;;;;16.57;50.48;99713.41;5111014;28;20809;-56
2022/04/07 11:33:28;;;;;;;12.20;10.85;;;;;;;16.23;50.80;99713.16;5125572;27;20803;-55
2022/04/07 11:36:15;;;;;;;12.43;9.77;;;;;;;15.89;51.71;99706.72;5121065;27;20450;-56
2022/04/07 11:38:46;;;;;;;13.90;11.70;;;;;;;16.07;50.92;99711.19;5110876;28;20406;-56
2022/04/07 11:41:14;;;;;;;11.93;10.82;;;;;;;16.25;50.11;99717.22;5111232;28;20449;-56
2022/04/07 11:43:43;;;;;;;11.32;9.98;;;;;;;15.70;50.93;99712.13;5111322;28;20418;-56